Time;durP1;ratioP1;P1;durP2;ratioP2;P2;SDS_P1;SDS_P2;PMS_P1;PMS_P2;Temp;Humidity;BMP_temperature;BMP_pressure;BME280_temperature;BME280_humidity;BME280_pressure;Samples;Min_cycle;Max_cycle;Signal;HPM_P1;HPM_P2
2023/08/23 00:02:14;;;;;;;3.85;1.58;;;18.30;91.40;;;;;;4999353;28;20032;-85
2023/08/23 00:04:40;;;;;;;4.70;1.80;;;18.30;91.60;;;;;;5015638;28;20117;-85
2023/08/23 00:07:05;;;;;;;3.65;1.40;;;18.30;91.60;;;;;;4999239;28;20065;-86
2023/08/23 00:09:31;;;;;;;2.92;1.25;;;18.20;91.60;;;;;;4991544;28;20027;-85
2023/08/23 00:11:57;;;;;;;3.28;1.05;;;18.20;91.70;;;;;;4944685;28;20041;-85
2023/08/23 00:14:23;;;;;;;3.47;1.20;;;18.20;91.80;;;;;;4960297;28;20125;-86
2023/08/23 00:16:49;;;;;;;4.93;1.60;;;18.20;91.80;;;;;;4977377;28;20106;-85
2023/08/23 00:19:15;;;;;;;5.00;1.40;;;18.10;91.80;;;;;;4963787;28;20037;-83
2023/08/23 00:21:41;;;;;;;3.83;1.60;;;18.10;91.80;;;;;;4963867;28;20030;-83
2023/08/23 00:24:06;;;;;;;3.53;1.67;;;18.10;91.80;;;;;;4947498;28;20026;-83
2023/08/23 00:26:32;;;;;;;4.72;1.98;;;18.10;91.90;;;;;;4996014;28;20499;-83
2023/08/23 00:28:58;;;;;;;6.90;2.53;;;18.00;91.90;;;;;;4963440;28;20038;-83
2023/08/23 00:31:23;;;;;;;6.03;1.98;;;18.00;92.00;;;;;;4947220;28;20026;-83
2023/08/23 00:33:49;;;;;;;7.05;2.60;;;18.00;92.00;;;;;;4947206;28;20076;-83
2023/08/23 00:36:14;;;;;;;5.35;2.58;;;18.00;92.00;;;;;;4963147;28;20109;-83
2023/08/23 00:38:40;;;;;;;3.63;1.98;;;17.90;92.10;;;;;;4947167;28;20406;-83
2023/08/23 00:41:06;;;;;;;4.15;2.33;;;17.90;92.20;;;;;;4979352;28;20030;-83
2023/08/23 00:43:31;;;;;;;6.55;2.55;;;17.90;92.30;;;;;;4947263;28;20082;-82
2023/08/23 00:45:57;;;;;;;5.60;2.67;;;17.80;92.40;;;;;;4947435;28;20461;-83
2023/08/23 00:48:23;;;;;;;4.47;2.42;;;17.80;92.50;;;;;;4978803;28;20061;-83
2023/08/23 00:50:49;;;;;;;5.88;2.78;;;17.70;92.50;;;;;;4978862;28;20022;-83
2023/08/23 00:53:15;;;;;;;5.68;2.47;;;17.70;92.70;;;;;;4979269;28;20030;-83
2023/08/23 00:55:44;;;;;;;5.45;2.33;;;17.60;92.80;;;;;;4962590;28;20026;-83
2023/08/23 00:58:10;;;;;;;7.97;2.85;;;17.60;92.80;;;;;;4962893;28;20165;-83
2023/08/23 01:00:36;;;;;;;9.00;2.38;;;17.50;92.90;;;;;;4979716;28;20030;-82
2023/08/23 01:03:01;;;;;;;6.07;2.83;;;17.50;93.00;;;;;;4963405;28;20038;-82
2023/08/23 01:06:11;;;;;;;4.63;2.75;;;17.50;93.10;;;;;;4947592;28;20030;-83
2023/08/23 01:08:56;;;;;;;6.25;2.78;;;17.40;93.30;;;;;;4979045;28;20033;-83
2023/08/23 01:11:25;;;;;;;4.05;2.50;;;17.40;93.40;;;;;;4978635;28;20026;-83
2023/08/23 01:14:09;;;;;;;6.03;2.72;;;17.40;93.50;;;;;;4978608;28;20041;-83
2023/08/23 01:16:35;;;;;;;4.63;2.30;;;17.40;93.60;;;;;;4978532;28;20026;-83
2023/08/23 01:19:09;;;;;;;5.40;2.55;;;17.40;93.60;;;;;;4946557;28;20284;-83
2023/08/23 01:21:38;;;;;;;5.43;2.75;;;17.40;93.70;;;;;;4978341;28;20363;-83
2023/08/23 01:24:08;;;;;;;5.90;2.70;;;17.40;93.80;;;;;;4995713;28;20474;-83
2023/08/23 01:26:40;;;;;;;6.70;3.35;;;17.40;93.90;;;;;;4962889;28;20436;-83
2023/08/23 01:29:07;;;;;;;6.45;3.05;;;17.30;94.10;;;;;;4946060;28;20085;-86
2023/08/23 01:31:38;;;;;;;5.32;3.13;;;17.30;94.20;;;;;;4978763;28;20022;-86
2023/08/23 01:34:25;;;;;;;5.85;2.72;;;17.30;94.30;;;;;;4978736;28;20018;-85
2023/08/23 01:36:53;;;;;;;7.35;2.85;;;17.30;94.60;;;;;;4978606;28;20080;-84
2023/08/23 01:39:22;;;;;;;6.68;2.90;;;17.40;94.70;;;;;;4978473;28;20026;-85
2023/08/23 01:41:49;;;;;;;5.10;2.70;;;17.40;94.90;;;;;;4978487;28;20548;-85
2023/08/23 01:44:15;;;;;;;5.15;2.95;;;17.40;95.00;;;;;;4962834;28;20050;-85
2023/08/23 01:46:41;;;;;;;5.18;3.25;;;17.40;95.10;;;;;;4978622;28;20069;-85
2023/08/23 01:49:06;;;;;;;6.15;3.55;;;17.40;95.20;;;;;;4948311;28;20073;-84
2023/08/23 01:51:32;;;;;;;4.75;2.63;;;17.40;95.30;;;;;;4986174;28;20030;-84
2023/08/23 01:53:58;;;;;;;7.93;3.20;;;17.40;95.50;;;;;;4966426;28;20360;-85
2023/08/23 01:56:23;;;;;;;6.32;3.35;;;17.40;95.60;;;;;;4946613;28;20026;-84
2023/08/23 01:58:49;;;;;;;5.72;2.78;;;17.40;95.70;;;;;;4963319;28;20068;-84
2023/08/23 02:01:15;;;;;;;6.00;3.03;;;17.40;95.80;;;;;;4964133;28;20038;-84
2023/08/23 02:03:40;;;;;;;4.65;2.63;;;17.40;95.90;;;;;;4963684;28;20019;-84
2023/08/23 02:06:06;;;;;;;5.35;2.88;;;17.40;96.10;;;;;;4962444;28;20022;-85
2023/08/23 02:08:32;;;;;;;4.50;2.50;;;17.40;95.80;;;;;;4978361;28;20026;-85
2023/08/23 02:10:57;;;;;;;4.95;2.25;;;17.30;95.70;;;;;;4945828;28;20026;-85
2023/08/23 02:13:23;;;;;;;4.57;2.15;;;17.30;95.70;;;;;;4945998;28;20073;-87
2023/08/23 02:15:49;;;;;;;3.95;2.17;;;17.20;95.70;;;;;;4994202;28;20023;-86
2023/08/23 02:18:14;;;;;;;4.95;2.33;;;17.10;95.70;;;;;;4946235;28;20153;-86
2023/08/23 02:20:40;;;;;;;6.25;2.78;;;17.10;95.70;;;;;;4961904;28;20027;-85
2023/08/23 02:23:05;;;;;;;4.32;2.58;;;17.10;95.80;;;;;;4945801;28;20551;-87
2023/08/23 02:25:31;;;;;;;4.22;2.28;;;17.00;95.90;;;;;;4978022;28;20234;-86
2023/08/23 02:27:57;;;;;;;4.35;2.42;;;17.00;95.90;;;;;;4978011;28;20486;-86
2023/08/23 02:30:23;;;;;;;4.40;2.22;;;17.00;96.00;;;;;;4945591;28;20478;-84
2023/08/23 02:32:48;;;;;;;6.25;3.17;;;17.00;96.10;;;;;;4977225;28;20034;-81
2023/08/23 02:35:14;;;;;;;7.28;2.92;;;17.00;96.20;;;;;;4945129;28;20132;-81
2023/08/23 02:37:39;;;;;;;6.30;2.60;;;16.90;96.20;;;;;;4976939;28;20026;-82
2023/08/23 02:40:06;;;;;;;6.55;2.95;;;16.90;96.20;;;;;;4960967;28;20058;-82
2023/08/23 02:42:32;;;;;;;5.72;3.05;;;16.90;96.20;;;;;;4945508;28;20033;-83
2023/08/23 02:44:57;;;;;;;6.20;3.97;;;16.90;96.20;;;;;;4946055;28;20117;-81
2023/08/23 02:47:23;;;;;;;7.07;3.90;;;16.90;96.30;;;;;;4977080;28;20022;-84
2023/08/23 02:49:49;;;;;;;8.00;3.63;;;16.80;96.30;;;;;;4977356;28;20026;-84
2023/08/23 02:52:14;;;;;;;6.25;4.03;;;16.80;96.40;;;;;;4946549;28;20117;-83
2023/08/23 02:54:40;;;;;;;6.20;3.20;;;16.80;96.40;;;;;;4964161;28;20113;-81
2023/08/23 02:57:05;;;;;;;6.72;3.25;;;16.80;96.50;;;;;;4951928;28;20029;-84
2023/08/23 02:59:31;;;;;;;6.10;2.75;;;16.80;96.50;;;;;;4965549;28;20134;-83
2023/08/23 03:01:58;;;;;;;6.03;3.30;;;16.80;96.60;;;;;;4945490;28;20050;-81
2023/08/23 03:04:23;;;;;;;7.05;3.38;;;16.80;96.60;;;;;;4944823;28;20030;-81
2023/08/23 03:06:49;;;;;;;8.15;3.55;;;16.80;96.70;;;;;;4944819;28;20038;-83
2023/08/23 03:09:15;;;;;;;5.80;3.15;;;16.80;96.70;;;;;;4960694;28;20038;-83
2023/08/23 03:11:40;;;;;;;5.50;3.40;;;16.80;96.90;;;;;;4960770;28;20035;-83
2023/08/23 03:14:06;;;;;;;4.65;2.78;;;16.80;97.00;;;;;;4960529;28;20029;-83
2023/08/23 03:16:32;;;;;;;5.90;2.97;;;16.80;97.20;;;;;;4960794;28;20033;-83
2023/08/23 03:18:58;;;;;;;5.25;3.08;;;16.80;97.30;;;;;;4976672;28;20061;-83
2023/08/23 03:21:24;;;;;;;8.55;3.13;;;16.80;97.40;;;;;;4960829;28;20066;-82
2023/08/23 03:23:49;;;;;;;6.93;2.35;;;16.90;97.50;;;;;;4993946;28;20034;-83
2023/08/23 03:26:15;;;;;;;3.95;2.42;;;16.90;97.60;;;;;;4960502;28;20038;-83
2023/08/23 03:28:41;;;;;;;7.78;2.72;;;16.90;97.70;;;;;;4944887;28;20125;-85
2023/08/23 03:31:06;;;;;;;4.18;2.55;;;16.90;97.70;;;;;;4976934;28;20391;-85
2023/08/23 03:33:32;;;;;;;4.45;2.47;;;16.90;97.70;;;;;;4961101;28;20113;-85
2023/08/23 03:35:58;;;;;;;6.05;2.78;;;16.90;97.70;;;;;;4945253;28;20027;-86
2023/08/23 03:38:24;;;;;;;4.40;2.65;;;16.90;97.80;;;;;;4960755;28;20475;-86
2023/08/23 03:40:51;;;;;;;6.10;2.30;;;16.90;97.80;;;;;;4945377;28;20035;-87
2023/08/23 03:43:17;;;;;;;5.13;2.67;;;16.80;97.80;;;;;;4977130;28;20027;-86
2023/08/23 03:45:50;;;;;;;4.93;2.22;;;16.80;97.80;;;;;;4944884;28;20035;-85
2023/08/23 03:48:18;;;;;;;5.10;2.25;;;16.80;97.80;;;;;;4976790;28;20027;-86
2023/08/23 03:50:44;;;;;;;4.43;2.72;;;16.80;97.80;;;;;;4961462;28;20081;-85
2023/08/23 03:53:10;;;;;;;4.07;2.38;;;16.80;98.10;;;;;;4964727;28;20030;-86
2023/08/23 03:55:36;;;;;;;5.32;2.90;;;16.80;97.90;;;;;;4948522;28;20041;-85
2023/08/23 03:58:04;;;;;;;4.63;2.45;;;16.70;97.90;;;;;;4997547;28;20552;-86
2023/08/23 04:00:29;;;;;;;6.03;2.28;;;16.80;97.90;;;;;;4996807;28;20124;-85
2023/08/23 04:02:55;;;;;;;4.20;2.55;;;16.70;97.80;;;;;;4964348;28;20030;-86
2023/08/23 04:05:21;;;;;;;4.63;2.30;;;16.70;97.70;;;;;;4980364;28;20484;-85
2023/08/23 04:07:47;;;;;;;5.43;2.33;;;16.70;97.70;;;;;;4963982;28;20023;-86
2023/08/23 04:10:12;;;;;;;3.97;2.13;;;16.70;97.70;;;;;;4964756;28;20121;-85
2023/08/23 04:12:38;;;;;;;3.40;1.98;;;16.60;97.60;;;;;;4948112;28;20026;-85
2023/08/23 04:15:04;;;;;;;3.28;1.80;;;16.60;97.60;;;;;;4963954;28;20116;-85
2023/08/23 04:17:30;;;;;;;4.60;1.80;;;16.60;97.70;;;;;;4963964;28;20026;-85
2023/08/23 04:19:56;;;;;;;4.35;1.60;;;16.50;97.60;;;;;;4979940;28;20019;-85
2023/08/23 04:22:21;;;;;;;3.60;1.98;;;16.50;97.70;;;;;;4947897;28;20053;-85
2023/08/23 04:24:49;;;;;;;5.38;1.88;;;16.50;97.70;;;;;;4947728;28;20044;-86
2023/08/23 04:27:14;;;;;;;3.70;2.17;;;16.40;97.80;;;;;;4979737;28;20089;-85
2023/08/23 04:29:40;;;;;;;4.07;2.53;;;16.40;97.90;;;;;;4947819;28;20471;-85
2023/08/23 04:32:09;;;;;;;4.80;3.13;;;16.40;98.00;;;;;;4947465;28;20029;-83
2023/08/23 04:34:35;;;;;;;5.90;2.72;;;16.40;98.10;;;;;;4948377;28;20026;-83
2023/08/23 04:37:01;;;;;;;5.00;2.58;;;16.40;98.20;;;;;;4947550;28;20022;-83
2023/08/23 04:39:26;;;;;;;4.00;1.85;;;16.40;98.20;;;;;;4979590;28;20030;-83
2023/08/23 04:41:52;;;;;;;4.18;2.08;;;16.40;98.20;;;;;;4947637;28;20038;-83
2023/08/23 04:44:18;;;;;;;4.18;2.50;;;16.40;98.30;;;;;;4979757;28;20033;-82
2023/08/23 04:46:44;;;;;;;5.40;2.60;;;16.40;98.30;;;;;;4947623;28;20478;-84
2023/08/23 04:49:10;;;;;;;5.95;3.28;;;16.40;98.60;;;;;;4980202;28;20034;-85
2023/08/23 04:51:35;;;;;;;5.53;3.17;;;16.30;98.40;;;;;;4963474;28;20509;-84
2023/08/23 04:54:03;;;;;;;6.03;3.40;;;16.30;98.40;;;;;;4979199;28;20018;-84
2023/08/23 04:56:29;;;;;;;6.75;4.15;;;16.30;98.50;;;;;;4947325;28;20057;-85
2023/08/23 04:58:54;;;;;;;5.18;3.28;;;16.40;98.50;;;;;;4946575;28;20069;-84
2023/08/23 05:01:20;;;;;;;7.28;4.03;;;16.30;98.60;;;;;;4946866;28;20125;-84
2023/08/23 05:03:46;;;;;;;6.25;3.92;;;16.30;98.60;;;;;;4946340;28;20022;-84
2023/08/23 05:06:12;;;;;;;6.38;4.03;;;16.30;98.70;;;;;;4947442;28;20550;-85
2023/08/23 05:08:38;;;;;;;4.90;3.05;;;16.30;98.80;;;;;;4963006;28;20116;-84
2023/08/23 05:11:03;;;;;;;4.10;2.53;;;16.40;98.90;;;;;;4978820;28;20598;-85
2023/08/23 05:13:29;;;;;;;5.35;2.47;;;16.40;98.90;;;;;;4947326;28;20030;-84
2023/08/23 05:15:56;;;;;;;5.88;3.15;;;16.40;99.30;;;;;;4963295;28;20501;-84
2023/08/23 05:18:24;;;;;;;5.05;2.47;;;16.40;99.00;;;;;;4979143;28;20061;-84
2023/08/23 05:20:54;;;;;;;4.47;2.95;;;16.50;99.10;;;;;;4963383;28;20031;-84
2023/08/23 05:23:21;;;;;;;4.45;2.67;;;16.50;99.20;;;;;;4962563;28;20058;-83
2023/08/23 05:25:46;;;;;;;5.20;3.13;;;16.50;99.20;;;;;;4963268;28;20112;-84
2023/08/23 05:28:12;;;;;;;5.07;2.90;;;16.50;99.20;;;;;;4962733;28;20423;-85
2023/08/23 05:30:39;;;;;;;5.10;3.00;;;16.50;99.30;;;;;;4962589;28;20050;-84
2023/08/23 05:33:06;;;;;;;6.47;2.78;;;16.60;99.30;;;;;;4978533;28;20058;-85
2023/08/23 05:35:32;;;;;;;6.10;2.97;;;16.60;99.30;;;;;;4946978;28;20033;-84
2023/08/23 05:37:58;;;;;;;5.07;2.70;;;16.60;99.30;;;;;;4978381;28;20026;-84
2023/08/23 05:40:24;;;;;;;3.97;2.55;;;16.70;99.30;;;;;;4949231;28;20037;-84
2023/08/23 05:42:50;;;;;;;3.97;2.33;;;16.70;99.30;;;;;;4997055;28;20041;-84
2023/08/23 05:45:15;;;;;;;4.43;3.10;;;16.70;99.30;;;;;;4982258;28;20026;-84
2023/08/23 05:47:41;;;;;;;7.90;2.47;;;16.70;99.40;;;;;;4970107;28;20413;-83
2023/08/23 05:50:07;;;;;;;7.85;2.55;;;16.80;99.50;;;;;;4991086;28;20057;-84
2023/08/23 05:52:33;;;;;;;5.15;2.78;;;16.80;99.50;;;;;;4989534;28;20049;-87
2023/08/23 05:54:58;;;;;;;5.45;3.70;;;16.80;99.60;;;;;;5024806;28;20026;-86
2023/08/23 05:57:24;;;;;;;7.93;5.35;;;16.80;99.60;;;;;;5018334;28;20022;-86
2023/08/23 05:59:49;;;;;;;9.18;6.10;;;16.80;99.60;;;;;;4980875;28;20057;-86
2023/08/23 06:02:15;;;;;;;10.52;6.60;;;16.90;99.70;;;;;;4992604;28;20030;-87
2023/08/23 06:04:41;;;;;;;10.88;6.30;;;16.90;99.80;;;;;;4985984;28;20030;-86
2023/08/23 06:07:07;;;;;;;13.15;6.80;;;16.90;99.90;;;;;;4966750;28;20030;-87
2023/08/23 06:09:35;;;;;;;9.52;6.43;;;17.00;99.90;;;;;;4967233;28;20044;-87
2023/08/23 06:12:01;;;;;;;9.25;6.40;;;17.10;99.90;;;;;;5000622;28;20033;-86
2023/08/23 06:14:26;;;;;;;9.77;6.25;;;17.10;99.90;;;;;;4982923;28;20153;-87
2023/08/23 06:16:52;;;;;;;9.98;6.53;;;17.10;99.90;;;;;;4982549;28;20030;-87
2023/08/23 06:19:18;;;;;;;10.07;6.82;;;17.20;99.90;;;;;;4998634;28;20045;-87
2023/08/23 06:21:45;;;;;;;13.18;6.35;;;17.20;99.90;;;;;;4998190;28;20076;-87
2023/08/23 06:24:11;;;;;;;12.80;7.30;;;17.30;99.90;;;;;;4998867;28;20037;-87
2023/08/23 06:26:37;;;;;;;11.90;6.80;;;17.30;99.90;;;;;;4982045;28;20034;-87
2023/08/23 06:29:03;;;;;;;10.85;7.30;;;17.40;99.90;;;;;;4997958;28;20029;-88
2023/08/23 06:31:30;;;;;;;10.43;7.28;;;17.40;99.90;;;;;;4981598;28;20060;-85
2023/08/23 06:33:56;;;;;;;10.68;7.00;;;17.40;99.90;;;;;;4980569;28;20037;-84
2023/08/23 06:36:21;;;;;;;11.32;7.22;;;17.40;99.90;;;;;;4980308;28;20030;-84
2023/08/23 06:38:47;;;;;;;10.85;7.38;;;17.40;99.90;;;;;;4996081;28;20054;-84
2023/08/23 06:41:13;;;;;;;13.10;8.02;;;17.50;99.90;;;;;;4963913;28;20022;-84
2023/08/23 06:43:39;;;;;;;10.93;6.95;;;17.50;99.90;;;;;;4997022;28;20109;-86
2023/08/23 06:46:05;;;;;;;11.10;7.63;;;17.50;99.90;;;;;;4980301;28;20129;-85
2023/08/23 06:48:31;;;;;;;11.20;6.95;;;17.50;99.90;;;;;;4964223;28;20049;-84
2023/08/23 06:51:01;;;;;;;9.57;6.50;;;17.60;99.90;;;;;;4996294;28;20454;-83
2023/08/23 06:53:26;;;;;;;11.30;6.70;;;17.70;99.90;;;;;;4979721;28;20053;-84
2023/08/23 06:55:52;;;;;;;9.95;6.40;;;17.70;99.90;;;;;;4960838;28;20062;-84
2023/08/23 06:58:18;;;;;;;10.65;6.95;;;17.70;99.90;;;;;;4944784;28;20450;-83
2023/08/23 07:00:43;;;;;;;10.25;6.60;;;17.80;99.90;;;;;;4944589;28;20138;-84
2023/08/23 07:03:09;;;;;;;9.38;5.88;;;17.80;99.90;;;;;;4970635;28;20049;-84
2023/08/23 07:05:35;;;;;;;9.88;6.88;;;17.90;99.90;;;;;;4955288;28;20387;-84
2023/08/23 07:08:02;;;;;;;13.13;6.43;;;18.00;99.90;;;;;;4995774;28;20099;-83
2023/08/23 07:10:28;;;;;;;10.07;6.35;;;18.00;99.90;;;;;;4964000;28;20075;-82
2023/08/23 07:12:55;;;;;;;9.98;6.15;;;18.10;99.90;;;;;;5013619;28;20028;-82
2023/08/23 07:15:20;;;;;;;11.75;6.10;;;18.10;99.90;;;;;;4996161;28;20077;-83
2023/08/23 07:17:48;;;;;;;12.25;6.40;;;18.20;99.90;;;;;;4996457;28;20497;-85
2023/08/23 07:20:15;;;;;;;8.40;6.25;;;18.20;99.90;;;;;;5013760;28;20033;-84
2023/08/23 07:22:41;;;;;;;9.82;7.47;;;18.30;99.90;;;;;;4971529;28;20041;-85
2023/08/23 07:25:07;;;;;;;10.73;6.07;;;18.30;99.90;;;;;;4980341;28;20524;-83
2023/08/23 07:27:33;;;;;;;9.48;6.32;;;18.40;99.90;;;;;;5000265;28;20034;-84
2023/08/23 07:29:59;;;;;;;7.90;5.72;;;18.40;99.90;;;;;;4984524;28;20037;-84
2023/08/23 07:32:30;;;;;;;10.05;6.22;;;18.50;99.90;;;;;;4984026;28;20030;-83
2023/08/23 07:34:56;;;;;;;7.93;5.68;;;18.50;99.90;;;;;;4984472;28;20019;-84
2023/08/23 07:37:22;;;;;;;10.75;6.93;;;18.60;99.90;;;;;;4983625;28;20033;-85
2023/08/23 07:39:48;;;;;;;11.70;6.68;;;18.70;99.90;;;;;;4999977;28;20462;-83
2023/08/23 07:42:14;;;;;;;11.23;7.25;;;18.70;99.90;;;;;;5017597;28;20022;-82
2023/08/23 07:44:40;;;;;;;9.20;5.60;;;18.80;99.80;;;;;;4983457;28;20022;-81
2023/08/23 07:47:05;;;;;;;9.85;6.05;;;18.90;99.70;;;;;;5017121;28;20033;-81
2023/08/23 07:49:31;;;;;;;10.30;6.63;;;18.90;99.50;;;;;;4983455;28;20034;-83
2023/08/23 07:51:57;;;;;;;10.98;6.82;;;19.00;99.40;;;;;;4999900;28;20033;-83
2023/08/23 07:54:22;;;;;;;9.40;6.20;;;19.00;99.20;;;;;;4983307;28;20113;-85
2023/08/23 07:56:48;;;;;;;10.73;6.70;;;19.10;99.10;;;;;;4983675;28;20447;-84
2023/08/23 07:59:16;;;;;;;9.80;5.68;;;19.10;99.00;;;;;;4983331;28;20091;-84
2023/08/23 08:01:42;;;;;;;12.05;6.43;;;19.20;99.00;;;;;;4967843;28;20048;-84
2023/08/23 08:04:08;;;;;;;10.80;6.22;;;19.20;98.90;;;;;;4983474;28;20030;-84
2023/08/23 08:06:33;;;;;;;8.45;5.57;;;19.30;98.80;;;;;;4964620;28;20030;-85
2023/08/23 08:08:59;;;;;;;12.25;5.80;;;19.40;98.70;;;;;;5000047;28;20053;-83
2023/08/23 08:11:25;;;;;;;10.60;6.50;;;19.40;98.50;;;;;;4983429;28;20389;-84
2023/08/23 08:13:51;;;;;;;11.05;6.00;;;19.50;98.20;;;;;;4998732;28;20452;-84
2023/08/23 08:16:17;;;;;;;8.05;4.55;;;19.60;98.10;;;;;;4981942;28;20053;-85
2023/08/23 08:18:45;;;;;;;14.05;5.95;;;19.60;98.00;;;;;;4998992;28;20109;-82
2023/08/23 08:21:11;;;;;;;9.82;5.28;;;19.70;97.90;;;;;;4983459;28;20363;-86
2023/08/23 08:23:37;;;;;;;16.77;5.40;;;19.80;97.70;;;;;;4999243;28;20026;-86
2023/08/23 08:26:05;;;;;;;9.57;5.35;;;19.80;97.50;;;;;;4983439;28;20050;-84
2023/08/23 08:28:31;;;;;;;8.50;4.65;;;19.90;97.40;;;;;;4983276;28;20053;-85
2023/08/23 08:30:56;;;;;;;7.00;4.68;;;20.00;97.20;;;;;;4999149;28;20109;-83
2023/08/23 08:33:22;;;;;;;6.15;3.70;;;20.10;97.10;;;;;;4999729;28;20022;-84
2023/08/23 08:35:48;;;;;;;8.80;3.90;;;20.10;96.90;;;;;;4982870;28;20030;-85
2023/08/23 08:38:13;;;;;;;10.57;4.60;;;20.20;96.60;;;;;;4981672;28;20482;-85
2023/08/23 08:40:39;;;;;;;7.88;4.43;;;20.30;96.10;;;;;;4999457;28;20053;-84
2023/08/23 08:43:05;;;;;;;8.73;4.55;;;20.30;95.90;;;;;;4982981;28;20037;-82
2023/08/23 08:45:32;;;;;;;6.30;3.67;;;20.40;95.50;;;;;;4999222;28;20408;-84
2023/08/23 08:47:58;;;;;;;5.82;3.33;;;20.50;95.40;;;;;;4999017;28;20404;-85
2023/08/23 08:50:29;;;;;;;9.02;4.57;;;20.50;95.10;;;;;;4982155;28;20030;-85
2023/08/23 08:52:57;;;;;;;8.93;4.82;;;20.60;94.70;;;;;;4996842;28;20022;-85
2023/08/23 08:55:24;;;;;;;9.75;4.55;;;20.70;94.40;;;;;;4999682;28;20036;-85
2023/08/23 08:57:53;;;;;;;6.80;3.97;;;20.80;94.20;;;;;;5000097;28;20137;-83
2023/08/23 09:00:23;;;;;;;7.40;4.15;;;20.80;93.70;;;;;;5019581;28;20061;-81
2023/08/23 09:02:52;;;;;;;6.65;3.60;;;20.90;93.50;;;;;;5019545;28;20025;-82
2023/08/23 09:05:20;;;;;;;5.13;3.10;;;20.90;93.00;;;;;;5019824;28;20048;-82
2023/08/23 09:07:46;;;;;;;11.75;3.90;;;21.00;92.70;;;;;;5019135;28;20120;-81
2023/08/23 09:10:13;;;;;;;5.15;3.08;;;21.10;92.60;;;;;;5022171;28;20113;-83
2023/08/23 09:12:39;;;;;;;5.55;3.17;;;21.10;92.60;;;;;;5024035;28;20044;-83
2023/08/23 09:15:05;;;;;;;7.40;3.90;;;21.20;92.50;;;;;;5006431;28;20026;-84
2023/08/23 09:17:33;;;;;;;10.05;3.38;;;21.30;92.30;;;;;;5020146;28;20047;-83
2023/08/23 09:19:59;;;;;;;7.63;3.08;;;21.40;92.10;;;;;;5020470;28;20377;-84
2023/08/23 09:22:25;;;;;;;5.88;2.80;;;21.40;91.80;;;;;;5019424;28;20514;-84
2023/08/23 09:24:50;;;;;;;6.68;2.50;;;21.50;91.70;;;;;;4982162;28;20121;-85
2023/08/23 09:27:16;;;;;;;4.75;2.35;;;21.60;91.30;;;;;;4995337;28;20030;-84
2023/08/23 09:29:43;;;;;;;5.88;2.60;;;21.70;90.80;;;;;;4981572;28;20115;-84
2023/08/23 09:32:09;;;;;;;4.35;2.15;;;21.80;90.60;;;;;;4981767;28;20030;-83
2023/08/23 09:34:35;;;;;;;5.88;2.85;;;21.80;90.30;;;;;;4997781;28;20040;-83
2023/08/23 09:37:07;;;;;;;5.10;2.65;;;21.90;90.10;;;;;;4975352;28;20030;-84
2023/08/23 09:39:34;;;;;;;5.73;2.23;;;22.00;89.60;;;;;;4981186;28;20031;-82
2023/08/23 09:42:05;;;;;;;5.65;2.05;;;22.10;88.60;;;;;;4979408;28;20031;-86
2023/08/23 09:44:37;;;;;;;4.85;1.77;;;22.20;87.70;;;;;;4962903;28;20528;-85
2023/08/23 09:47:07;;;;;;;4.32;2.00;;;22.20;87.10;;;;;;4980271;28;20026;-83
2023/08/23 09:49:39;;;;;;;6.53;2.33;;;22.30;86.70;;;;;;4980526;28;20026;-84
2023/08/23 09:52:05;;;;;;;5.50;1.90;;;22.40;85.30;;;;;;4978831;28;20472;-84
2023/08/23 09:54:48;;;;;;;5.60;1.90;;;22.50;84.50;;;;;;4979076;28;20030;-85
2023/08/23 09:57:14;;;;;;;6.95;2.28;;;22.50;83.70;;;;;;4995843;28;20025;-85
2023/08/23 09:59:41;;;;;;;5.00;2.60;;;22.60;83.10;;;;;;4961784;28;20066;-85
2023/08/23 10:02:10;;;;;;;4.72;2.30;;;22.60;82.80;;;;;;4962128;28;20066;-84
2023/08/23 10:04:41;;;;;;;3.70;1.95;;;22.70;82.20;;;;;;4995384;28;20069;-85
2023/08/23 10:07:08;;;;;;;6.95;1.95;;;22.80;81.60;;;;;;4978249;28;20037;-84
2023/08/23 10:09:35;;;;;;;4.28;1.50;;;22.80;81.00;;;;;;4977687;28;20023;-84
2023/08/23 10:12:03;;;;;;;3.75;1.33;;;23.00;80.80;;;;;;4962410;28;20057;-84
2023/08/23 10:14:30;;;;;;;3.95;1.30;;;23.10;80.00;;;;;;4978036;28;20076;-86
2023/08/23 10:16:57;;;;;;;4.20;1.45;;;23.30;79.10;;;;;;4977709;28;20390;-84
2023/08/23 10:21:49;;;;;;;4.43;1.45;;;23.60;78.00;;;;;;5013567;28;20033;-89
2023/08/23 10:24:15;;;;;;;3.83;1.05;;;23.90;77.70;;;;;;5024220;28;20036;-91
2023/08/23 10:26:52;;;;;;;2.70;1.00;;;24.20;75.70;;;;;;5024879;28;20041;-91
2023/08/23 10:29:28;;;;;;;4.53;1.48;;;24.60;73.30;;;;;;5025773;28;20143;-92
2023/08/23 10:31:55;;;;;;;2.97;1.17;;;25.00;72.50;;;;;;5042342;28;20028;-90
2023/08/23 10:34:25;;;;;;;2.63;1.00;;;25.50;72.80;;;;;;5046082;28;20033;-90
2023/08/23 10:36:55;;;;;;;2.15;0.90;;;25.90;72.50;;;;;;5039651;28;20040;-92
2023/08/23 10:39:23;;;;;;;2.03;0.60;;;26.50;71.10;;;;;;5070599;28;20035;-87
2023/08/23 10:41:51;;;;;;;2.75;0.93;;;27.20;71.10;;;;;;5049732;28;20025;-89
2023/08/23 10:44:17;;;;;;;2.33;0.85;;;27.90;69.10;;;;;;5028041;28;20021;-89
2023/08/23 10:46:44;;;;;;;3.05;0.70;;;28.60;68.60;;;;;;5045141;28;20050;-93
2023/08/23 10:49:11;;;;;;;2.83;0.50;;;29.20;66.50;;;;;;5046815;28;20388;-92
2023/08/23 10:51:41;;;;;;;5.05;0.82;;;29.50;65.20;;;;;;5026155;28;20029;-91
2023/08/23 10:54:11;;;;;;;1.73;0.60;;;29.70;63.80;;;;;;5054129;28;20029;-92
2023/08/23 10:56:37;;;;;;;4.03;0.70;;;29.70;62.60;;;;;;5024628;28;21261;-91
2023/08/23 10:59:04;;;;;;;2.45;0.60;;;29.70;61.60;;;;;;5038378;28;20039;-91
2023/08/23 11:01:30;;;;;;;3.92;0.80;;;29.70;60.50;;;;;;5041517;28;20035;-93
2023/08/23 11:03:56;;;;;;;4.05;0.60;;;29.80;59.40;;;;;;5046222;28;20108;-93
2023/08/23 11:06:22;;;;;;;4.13;0.75;;;29.80;58.80;;;;;;5051214;28;20029;-89
2023/08/23 11:08:48;;;;;;;4.38;0.70;;;29.70;58.30;;;;;;5052519;28;20075;-92
2023/08/23 11:11:13;;;;;;;2.03;0.65;;;29.80;57.90;;;;;;5018235;28;20112;-87
2023/08/23 11:13:39;;;;;;;1.10;0.50;;;29.90;57.60;;;;;;5050596;28;20025;-92
2023/08/23 11:16:05;;;;;;;2.95;0.57;;;30.00;57.10;;;;;;5028259;28;20022;-92
2023/08/23 11:18:31;;;;;;;1.60;0.43;;;29.90;56.50;;;;;;5057333;28;20497;-90
2023/08/23 11:20:57;;;;;;;1.55;0.50;;;30.00;56.10;;;;;;5039418;28;20077;-90
2023/08/23 11:23:23;;;;;;;2.15;0.70;;;30.00;55.60;;;;;;5038346;28;20017;-91
2023/08/23 11:25:49;;;;;;;1.85;0.70;;;30.00;55.10;;;;;;5039006;28;20029;-89
2023/08/23 11:28:16;;;;;;;1.35;0.50;;;30.10;54.80;;;;;;5021570;28;20052;-92
2023/08/23 11:30:42;;;;;;;1.20;0.40;;;30.20;54.50;;;;;;5056237;28;20025;-90
2023/08/23 11:33:08;;;;;;;3.00;0.77;;;30.20;54.40;;;;;;5055841;28;20021;-93
2023/08/23 11:35:34;;;;;;;1.75;0.50;;;30.40;54.30;;;;;;5039099;28;20032;-94
2023/08/23 11:38:02;;;;;;;2.70;0.60;;;30.50;53.90;;;;;;5038253;28;20025;-93
2023/08/23 11:40:28;;;;;;;2.13;0.60;;;30.60;53.60;;;;;;5023032;28;20029;-93
2023/08/23 11:43:00;;;;;;;2.17;0.57;;;30.80;53.50;;;;;;5004979;28;20026;-92
2023/08/23 11:45:26;;;;;;;1.77;0.60;;;30.80;53.00;;;;;;5022775;28;20032;-93
2023/08/23 11:47:55;;;;;;;2.53;0.50;;;30.90;53.10;;;;;;5039694;28;20033;-94
2023/08/23 11:50:21;;;;;;;1.85;0.50;;;31.00;53.10;;;;;;5023464;28;20033;-91
2023/08/23 11:52:48;;;;;;;1.17;0.40;;;31.20;52.80;;;;;;5022817;28;20047;-95
2023/08/23 11:55:23;;;;;;;2.17;0.55;;;31.40;52.60;;;;;;5037888;28;20088;-93
2023/08/23 11:57:53;;;;;;;2.25;0.60;;;31.60;52.00;;;;;;5040701;28;20033;-92
2023/08/23 12:00:19;;;;;;;1.60;0.43;;;31.70;51.60;;;;;;5023302;28;20033;-94
2023/08/23 12:02:45;;;;;;;1.42;0.43;;;31.80;51.50;;;;;;5021770;28;20557;-93
2023/08/23 12:05:13;;;;;;;1.80;0.50;;;31.90;51.20;;;;;;5021888;28;20052;-93
2023/08/23 12:07:39;;;;;;;2.03;0.40;;;32.00;51.00;;;;;;5022164;28;20079;-95
2023/08/23 12:10:08;;;;;;;4.00;0.50;;;32.20;50.70;;;;;;5055752;28;20062;-93
2023/08/23 12:12:35;;;;;;;1.60;0.60;;;32.20;50.20;;;;;;5041083;28;20056;-95
2023/08/23 12:15:01;;;;;;;1.17;0.40;;;32.40;49.80;;;;;;5025576;28;20491;-95
2023/08/23 12:17:30;;;;;;;2.20;0.50;;;32.60;49.50;;;;;;5060777;28;20053;-96
2023/08/23 12:19:56;;;;;;;2.78;0.45;;;32.80;49.30;;;;;;5042938;28;20339;-94
2023/08/23 12:22:25;;;;;;;3.13;0.40;;;33.00;49.10;;;;;;5040986;28;20389;-93
2023/08/23 12:24:51;;;;;;;1.30;0.50;;;33.10;48.80;;;;;;5059380;28;20021;-94
2023/08/23 12:27:17;;;;;;;2.28;0.43;;;33.20;48.60;;;;;;5042670;28;20029;-95
2023/08/23 12:29:46;;;;;;;2.67;0.60;;;33.30;48.30;;;;;;5064885;28;20036;-95
2023/08/23 12:32:11;;;;;;;1.13;0.50;;;33.50;48.10;;;;;;5043913;28;20029;-95
2023/08/23 12:34:37;;;;;;;1.20;0.40;;;33.70;47.60;;;;;;5044450;28;20025;-95
2023/08/23 12:37:03;;;;;;;2.92;0.40;;;33.70;47.30;;;;;;5043725;28;20055;-94
2023/08/23 12:39:30;;;;;;;2.17;0.50;;;33.90;47.30;;;;;;5043370;28;20109;-95
2023/08/23 12:41:56;;;;;;;1.98;0.43;;;34.10;47.00;;;;;;5044320;28;20029;-94
2023/08/23 12:44:22;;;;;;;1.98;0.50;;;34.30;46.80;;;;;;5044828;28;20163;-95
2023/08/23 12:46:52;;;;;;;1.60;0.40;;;34.40;46.40;;;;;;5049008;28;20013;-92